sensor_id;sensor_type;location;lat;lon;timestamp;pressure;altitude;pressure_sealevel;temperature;humidity
33286;BME280;19656;50.096;20.014;2022-10-16T00:03:03;99194.43;;;16.17;57.65
33286;BME280;19656;50.096;20.014;2022-10-16T00:08:09;99194.86;;;16.14;57.95
33286;BME280;19656;50.096;20.014;2022-10-16T00:13:13;99192.86;;;16.10;57.97
33286;BME280;19656;50.096;20.014;2022-10-16T00:18:16;99195.32;;;16.04;57.97
33286;BME280;19656;50.096;20.014;2022-10-16T00:23:21;99203.58;;;16.00;58.10
33286;BME280;19656;50.096;20.014;2022-10-16T00:28:25;99209.38;;;15.96;58.51
33286;BME280;19656;50.096;20.014;2022-10-16T00:33:30;99213.81;;;15.97;58.48
33286;BME280;19656;50.096;20.014;2022-10-16T00:38:34;99218.29;;;16.01;58.71
33286;BME280;19656;50.096;20.014;2022-10-16T00:43:43;99217.64;;;16.05;58.99
33286;BME280;19656;50.096;20.014;2022-10-16T00:49:02;99221.02;;;16.07;58.99
33286;BME280;19656;50.096;20.014;2022-10-16T00:54:12;99230.61;;;16.06;58.87
33286;BME280;19656;50.096;20.014;2022-10-16T00:59:26;99226.63;;;16.04;59.06
33286;BME280;19656;50.096;20.014;2022-10-16T01:04:35;99228.54;;;16.03;59.25
33286;BME280;19656;50.096;20.014;2022-10-16T01:15:14;99235.73;;;15.96;59.50
33286;BME280;19656;50.096;20.014;2022-10-16T01:20:44;99236.38;;;15.93;59.60
33286;BME280;19656;50.096;20.014;2022-10-16T01:31:07;99229.93;;;15.86;59.88
33286;BME280;19656;50.096;20.014;2022-10-16T01:36:17;99232.80;;;15.88;59.98
33286;BME280;19656;50.096;20.014;2022-10-16T01:41:30;99239.25;;;15.93;59.74
33286;BME280;19656;50.096;20.014;2022-10-16T01:46:39;99238.14;;;15.95;60.09
33286;BME280;19656;50.096;20.014;2022-10-16T01:51:47;99245.36;;;15.96;60.21
33286;BME280;19656;50.096;20.014;2022-10-16T01:56:55;99248.98;;;15.96;59.80
33286;BME280;19656;50.096;20.014;2022-10-16T02:02:04;99253.20;;;15.93;59.91
33286;BME280;19656;50.096;20.014;2022-10-16T02:07:11;99259.49;;;15.87;59.97
33286;BME280;19656;50.096;20.014;2022-10-16T02:12:18;99253.63;;;15.82;59.83
33286;BME280;19656;50.096;20.014;2022-10-16T02:17:26;99253.97;;;15.76;59.87
33286;BME280;19656;50.096;20.014;2022-10-16T02:22:38;99251.60;;;15.70;59.88
33286;BME280;19656;50.096;20.014;2022-10-16T02:28:02;99253.30;;;15.67;60.04
33286;BME280;19656;50.096;20.014;2022-10-16T02:33:10;99254.77;;;15.63;60.15
33286;BME280;19656;50.096;20.014;2022-10-16T02:38:17;99259.60;;;15.59;60.14
33286;BME280;19656;50.096;20.014;2022-10-16T02:43:22;99258.11;;;15.55;60.17
33286;BME280;19656;50.096;20.014;2022-10-16T02:48:28;99257.55;;;15.55;60.27
33286;BME280;19656;50.096;20.014;2022-10-16T02:53:31;99260.65;;;15.62;60.34
33286;BME280;19656;50.096;20.014;2022-10-16T02:58:34;99258.20;;;15.66;60.45
33286;BME280;19656;50.096;20.014;2022-10-16T03:03:38;99256.94;;;15.66;60.50
33286;BME280;19656;50.096;20.014;2022-10-16T03:08:41;99262.59;;;15.64;60.39
33286;BME280;19656;50.096;20.014;2022-10-16T03:13:45;99266.59;;;15.61;60.42
33286;BME280;19656;50.096;20.014;2022-10-16T03:18:49;99264.05;;;15.59;60.60
33286;BME280;19656;50.096;20.014;2022-10-16T03:23:52;99262.19;;;15.56;60.55
33286;BME280;19656;50.096;20.014;2022-10-16T03:28:56;99260.95;;;15.53;60.70
33286;BME280;19656;50.096;20.014;2022-10-16T03:33:59;99266.77;;;15.48;60.58
33286;BME280;19656;50.096;20.014;2022-10-16T03:39:02;99274.52;;;15.44;60.68
33286;BME280;19656;50.096;20.014;2022-10-16T03:44:06;99285.44;;;15.42;60.72
33286;BME280;19656;50.096;20.014;2022-10-16T03:49:11;99293.92;;;15.43;60.84
33286;BME280;19656;50.096;20.014;2022-10-16T03:54:15;99295.69;;;15.46;60.87
33286;BME280;19656;50.096;20.014;2022-10-16T03:59:19;99301.73;;;15.46;60.97
33286;BME280;19656;50.096;20.014;2022-10-16T04:04:24;99309.13;;;15.45;61.02
33286;BME280;19656;50.096;20.014;2022-10-16T04:09:28;99311.23;;;15.44;61.16
33286;BME280;19656;50.096;20.014;2022-10-16T04:14:31;99313.52;;;15.42;61.32
33286;BME280;19656;50.096;20.014;2022-10-16T04:19:34;99321.45;;;15.39;61.39
33286;BME280;19656;50.096;20.014;2022-10-16T04:24:38;99320.21;;;15.36;61.64
33286;BME280;19656;50.096;20.014;2022-10-16T04:29:42;99319.89;;;15.35;61.71
33286;BME280;19656;50.096;20.014;2022-10-16T04:34:45;99321.81;;;15.34;61.97
33286;BME280;19656;50.096;20.014;2022-10-16T04:39:48;99326.77;;;15.36;62.04
33286;BME280;19656;50.096;20.014;2022-10-16T04:44:51;99322.68;;;15.41;62.04
33286;BME280;19656;50.096;20.014;2022-10-16T04:49:56;99324.81;;;15.44;62.02
33286;BME280;19656;50.096;20.014;2022-10-16T04:54:59;99327.81;;;15.42;62.03
33286;BME280;19656;50.096;20.014;2022-10-16T05:00:05;99327.36;;;15.38;61.82
33286;BME280;19656;50.096;20.014;2022-10-16T05:05:08;99335.02;;;15.32;61.88
33286;BME280;19656;50.096;20.014;2022-10-16T05:10:11;99344.54;;;15.24;61.74
33286;BME280;19656;50.096;20.014;2022-10-16T05:15:14;99342.64;;;15.19;61.84
33286;BME280;19656;50.096;20.014;2022-10-16T05:20:17;99341.08;;;15.13;61.77
33286;BME280;19656;50.096;20.014;2022-10-16T05:25:20;99335.84;;;15.09;61.85
33286;BME280;19656;50.096;20.014;2022-10-16T05:30:23;99338.85;;;15.10;61.94
33286;BME280;19656;50.096;20.014;2022-10-16T05:35:26;99347.55;;;15.10;61.92
33286;BME280;19656;50.096;20.014;2022-10-16T05:40:29;99354.55;;;15.10;62.15
33286;BME280;19656;50.096;20.014;2022-10-16T05:45:32;99354.66;;;15.11;62.18
33286;BME280;19656;50.096;20.014;2022-10-16T05:50:35;99357.56;;;15.13;62.07
33286;BME280;19656;50.096;20.014;2022-10-16T05:55:38;99355.83;;;15.12;62.20
33286;BME280;19656;50.096;20.014;2022-10-16T06:00:41;99352.33;;;15.11;62.34
33286;BME280;19656;50.096;20.014;2022-10-16T06:05:44;99355.25;;;15.13;62.49
33286;BME280;19656;50.096;20.014;2022-10-16T06:10:47;99359.82;;;15.18;62.86
33286;BME280;19656;50.096;20.014;2022-10-16T06:15:50;99371.83;;;15.28;62.60
33286;BME280;19656;50.096;20.014;2022-10-16T06:20:54;99382.84;;;15.33;62.68
33286;BME280;19656;50.096;20.014;2022-10-16T06:26:05;99393.63;;;15.39;62.69
33286;BME280;19656;50.096;20.014;2022-10-16T06:31:12;99396.66;;;15.49;62.94
33286;BME280;19656;50.096;20.014;2022-10-16T06:36:16;99407.34;;;15.56;62.98
33286;BME280;19656;50.096;20.014;2022-10-16T06:41:21;99416.86;;;15.63;62.82
33286;BME280;19656;50.096;20.014;2022-10-16T06:46:26;99420.18;;;15.69;62.93
33286;BME280;19656;50.096;20.014;2022-10-16T06:51:29;99427.38;;;15.78;63.09
33286;BME280;19656;50.096;20.014;2022-10-16T06:56:34;99438.16;;;15.91;63.18
33286;BME280;19656;50.096;20.014;2022-10-16T07:01:37;99446.30;;;16.11;63.27
33286;BME280;19656;50.096;20.014;2022-10-16T07:06:40;99442.98;;;16.32;63.23
33286;BME280;19656;50.096;20.014;2022-10-16T07:11:43;99442.77;;;16.50;62.83
33286;BME280;19656;50.096;20.014;2022-10-16T07:16:49;99438.70;;;16.65;62.84
33286;BME280;19656;50.096;20.014;2022-10-16T07:21:51;99439.10;;;16.81;62.89
33286;BME280;19656;50.096;20.014;2022-10-16T07:26:54;99447.25;;;16.95;62.46
33286;BME280;19656;50.096;20.014;2022-10-16T07:31:59;99446.90;;;17.08;62.26
33286;BME280;19656;50.096;20.014;2022-10-16T07:37:02;99451.42;;;17.21;61.82
33286;BME280;19656;50.096;20.014;2022-10-16T07:42:05;99445.69;;;17.36;61.64
33286;BME280;19656;50.096;20.014;2022-10-16T07:47:11;99441.50;;;17.54;60.89
33286;BME280;19656;50.096;20.014;2022-10-16T07:52:16;99447.42;;;17.68;60.51
33286;BME280;19656;50.096;20.014;2022-10-16T07:57:19;99450.75;;;17.82;59.98
33286;BME280;19656;50.096;20.014;2022-10-16T08:02:23;99455.70;;;17.93;59.53
33286;BME280;19656;50.096;20.014;2022-10-16T08:07:26;99456.96;;;18.04;59.15
33286;BME280;19656;50.096;20.014;2022-10-16T08:12:30;99464.83;;;18.16;58.98
33286;BME280;19656;50.096;20.014;2022-10-16T08:17:32;99464.27;;;18.26;58.65
33286;BME280;19656;50.096;20.014;2022-10-16T08:22:35;99472.99;;;18.31;58.38
33286;BME280;19656;50.096;20.014;2022-10-16T08:27:38;99474.89;;;18.36;58.04
33286;BME280;19656;50.096;20.014;2022-10-16T08:32:41;99471.88;;;18.41;57.94
33286;BME280;19656;50.096;20.014;2022-10-16T08:37:44;99477.14;;;18.49;57.80
33286;BME280;19656;50.096;20.014;2022-10-16T08:53:24;99484.00;;;18.79;57.15
33286;BME280;19656;50.096;20.014;2022-10-16T08:58:29;99481.10;;;18.96;57.05
33286;BME280;19656;50.096;20.014;2022-10-16T09:03:47;99486.32;;;19.19;59.06
33286;BME280;19656;50.096;20.014;2022-10-16T09:25:20;99497.20;;;19.87;56.98
33286;BME280;19656;50.096;20.014;2022-10-16T09:30:29;99495.63;;;19.96;58.04
33286;BME280;19656;50.096;20.014;2022-10-16T09:35:37;99499.97;;;20.07;57.77
33286;BME280;19656;50.096;20.014;2022-10-16T09:40:43;99500.30;;;20.16;57.02
33286;BME280;19656;50.096;20.014;2022-10-16T09:45:55;99497.60;;;20.21;56.69
33286;BME280;19656;50.096;20.014;2022-10-16T09:51:02;99499.78;;;20.29;57.11
33286;BME280;19656;50.096;20.014;2022-10-16T09:56:06;99499.45;;;20.32;56.82
33286;BME280;19656;50.096;20.014;2022-10-16T10:01:15;99498.68;;;20.35;55.85
33286;BME280;19656;50.096;20.014;2022-10-16T10:16:42;99507.02;;;20.49;56.27
33286;BME280;19656;50.096;20.014;2022-10-16T10:21:46;99505.56;;;20.57;57.76
33286;BME280;19656;50.096;20.014;2022-10-16T10:27:02;99506.54;;;20.64;56.84
33286;BME280;19656;50.096;20.014;2022-10-16T10:32:25;99503.88;;;20.76;56.04
33286;BME280;19656;50.096;20.014;2022-10-16T10:53:56;99495.80;;;21.33;57.63
33286;BME280;19656;50.096;20.014;2022-10-16T11:09:58;99485.70;;;21.71;55.63
33286;BME280;19656;50.096;20.014;2022-10-16T11:25:30;99482.70;;;21.88;54.21
33286;BME280;19656;50.096;20.014;2022-10-16T11:30:43;99483.31;;;21.84;53.96
33286;BME280;19656;50.096;20.014;2022-10-16T11:41:32;99480.39;;;21.71;54.50
33286;BME280;19656;50.096;20.014;2022-10-16T11:46:40;99481.81;;;21.68;54.05
33286;BME280;19656;50.096;20.014;2022-10-16T11:52:17;99482.08;;;21.64;53.39
33286;BME280;19656;50.096;20.014;2022-10-16T11:57:25;99482.11;;;21.63;53.36
33286;BME280;19656;50.096;20.014;2022-10-16T12:07:39;99485.58;;;21.65;52.84
33286;BME280;19656;50.096;20.014;2022-10-16T12:12:45;99487.89;;;21.67;52.76
33286;BME280;19656;50.096;20.014;2022-10-16T12:17:49;99486.00;;;21.66;52.94
33286;BME280;19656;50.096;20.014;2022-10-16T12:23:06;99490.10;;;21.60;52.90
33286;BME280;19656;50.096;20.014;2022-10-16T12:33:24;99485.66;;;21.62;52.58
33286;BME280;19656;50.096;20.014;2022-10-16T12:38:52;99485.89;;;21.69;52.47
33286;BME280;19656;50.096;20.014;2022-10-16T12:43:54;99487.57;;;21.76;51.82
33286;BME280;19656;50.096;20.014;2022-10-16T12:54:48;99492.27;;;21.84;51.48
33286;BME280;19656;50.096;20.014;2022-10-16T13:00:18;99496.09;;;21.82;50.78
33286;BME280;19656;50.096;20.014;2022-10-16T13:16:59;99511.95;;;21.74;50.22
33286;BME280;19656;50.096;20.014;2022-10-16T13:38:18;99529.41;;;21.73;49.68
33286;BME280;19656;50.096;20.014;2022-10-16T13:43:35;99525.08;;;21.65;49.66
33286;BME280;19656;50.096;20.014;2022-10-16T13:48:40;99527.41;;;21.60;49.69
33286;BME280;19656;50.096;20.014;2022-10-16T13:53:45;99531.11;;;21.58;49.90
33286;BME280;19656;50.096;20.014;2022-10-16T13:59:03;99539.04;;;21.54;49.99
33286;BME280;19656;50.096;20.014;2022-10-16T14:04:09;99549.12;;;21.51;50.00
33286;BME280;19656;50.096;20.014;2022-10-16T14:09:23;99551.54;;;21.46;50.01
33286;BME280;19656;50.096;20.014;2022-10-16T14:14:34;99548.52;;;21.44;50.26
33286;BME280;19656;50.096;20.014;2022-10-16T14:19:38;99553.55;;;21.44;50.28
33286;BME280;19656;50.096;20.014;2022-10-16T14:24:41;99549.94;;;21.46;50.37
33286;BME280;19656;50.096;20.014;2022-10-16T14:29:44;99552.60;;;21.45;50.44
33286;BME280;19656;50.096;20.014;2022-10-16T14:34:53;99546.81;;;21.41;50.47
33286;BME280;19656;50.096;20.014;2022-10-16T14:39:56;99548.36;;;21.38;50.42
33286;BME280;19656;50.096;20.014;2022-10-16T14:45:00;99542.99;;;21.36;50.68
33286;BME280;19656;50.096;20.014;2022-10-16T14:50:14;99544.02;;;21.36;50.78
33286;BME280;19656;50.096;20.014;2022-10-16T14:55:17;99546.59;;;21.36;50.89
33286;BME280;19656;50.096;20.014;2022-10-16T15:00:23;99542.41;;;21.37;50.87
33286;BME280;19656;50.096;20.014;2022-10-16T15:05:29;99540.74;;;21.35;51.19
33286;BME280;19656;50.096;20.014;2022-10-16T15:10:37;99548.19;;;21.35;51.31
33286;BME280;19656;50.096;20.014;2022-10-16T15:15:45;99555.59;;;21.33;51.09
33286;BME280;19656;50.096;20.014;2022-10-16T15:20:49;99565.58;;;21.30;51.03
33286;BME280;19656;50.096;20.014;2022-10-16T15:25:54;99574.59;;;21.28;51.05
33286;BME280;19656;50.096;20.014;2022-10-16T15:30:58;99577.52;;;21.26;50.83
33286;BME280;19656;50.096;20.014;2022-10-16T15:36:02;99580.55;;;21.21;51.03
33286;BME280;19656;50.096;20.014;2022-10-16T15:41:05;99586.26;;;21.16;51.01
33286;BME280;19656;50.096;20.014;2022-10-16T15:46:11;99591.36;;;21.12;51.13
33286;BME280;19656;50.096;20.014;2022-10-16T15:51:18;99596.49;;;21.05;51.16
33286;BME280;19656;50.096;20.014;2022-10-16T15:56:21;99596.16;;;20.96;51.23
33286;BME280;19656;50.096;20.014;2022-10-16T16:01:25;99599.06;;;20.77;51.53
33286;BME280;19656;50.096;20.014;2022-10-16T16:06:28;99606.08;;;20.54;51.84
33286;BME280;19656;50.096;20.014;2022-10-16T16:11:32;99606.52;;;20.32;52.28
33286;BME280;19656;50.096;20.014;2022-10-16T16:16:41;99601.71;;;20.14;52.53
33286;BME280;19656;50.096;20.014;2022-10-16T16:21:44;99603.44;;;19.97;52.96
33286;BME280;19656;50.096;20.014;2022-10-16T16:26:47;99613.67;;;19.84;53.30
33286;BME280;19656;50.096;20.014;2022-10-16T16:31:49;99623.35;;;19.68;53.54
33286;BME280;19656;50.096;20.014;2022-10-16T16:36:53;99632.55;;;19.52;53.72
33286;BME280;19656;50.096;20.014;2022-10-16T16:41:57;99640.66;;;19.38;54.23
33286;BME280;19656;50.096;20.014;2022-10-16T16:47:02;99648.11;;;19.25;54.39
33286;BME280;19656;50.096;20.014;2022-10-16T16:52:05;99658.14;;;19.13;54.79
33286;BME280;19656;50.096;20.014;2022-10-16T16:57:09;99663.25;;;19.02;55.06
33286;BME280;19656;50.096;20.014;2022-10-16T17:02:12;99661.78;;;18.92;55.39
33286;BME280;19656;50.096;20.014;2022-10-16T17:07:15;99669.28;;;18.82;55.60
33286;BME280;19656;50.096;20.014;2022-10-16T17:12:21;99667.00;;;18.73;55.94
33286;BME280;19656;50.096;20.014;2022-10-16T17:17:24;99684.45;;;18.68;56.17
33286;BME280;19656;50.096;20.014;2022-10-16T17:22:28;99695.79;;;18.64;56.35
33286;BME280;19656;50.096;20.014;2022-10-16T17:27:31;99689.06;;;18.65;56.67
33286;BME280;19656;50.096;20.014;2022-10-16T17:32:35;99694.43;;;18.78;56.65
33286;BME280;19656;50.096;20.014;2022-10-16T17:37:39;99704.27;;;18.98;56.69
33286;BME280;19656;50.096;20.014;2022-10-16T17:42:43;99709.98;;;19.06;56.44
33286;BME280;19656;50.096;20.014;2022-10-16T17:47:46;99708.23;;;19.00;56.15
33286;BME280;19656;50.096;20.014;2022-10-16T17:52:49;99715.85;;;18.90;55.98
33286;BME280;19656;50.096;20.014;2022-10-16T17:57:52;99718.52;;;18.78;56.12
33286;BME280;19656;50.096;20.014;2022-10-16T18:02:56;99722.48;;;18.65;56.12
33286;BME280;19656;50.096;20.014;2022-10-16T18:07:58;99732.11;;;18.53;56.42
33286;BME280;19656;50.096;20.014;2022-10-16T18:13:02;99738.08;;;18.44;56.38
33286;BME280;19656;50.096;20.014;2022-10-16T18:18:04;99741.25;;;18.34;56.53
33286;BME280;19656;50.096;20.014;2022-10-16T18:23:08;99742.71;;;18.28;56.59
33286;BME280;19656;50.096;20.014;2022-10-16T18:28:11;99753.34;;;18.18;56.74
33286;BME280;19656;50.096;20.014;2022-10-16T18:33:14;99763.11;;;18.06;56.97
33286;BME280;19656;50.096;20.014;2022-10-16T18:38:17;99771.73;;;18.00;56.88
33286;BME280;19656;50.096;20.014;2022-10-16T18:43:20;99776.84;;;18.10;57.47
33286;BME280;19656;50.096;20.014;2022-10-16T18:48:23;99781.30;;;18.32;57.34
33286;BME280;19656;50.096;20.014;2022-10-16T18:53:26;99783.77;;;18.48;57.10
33286;BME280;19656;50.096;20.014;2022-10-16T18:58:30;99789.83;;;18.57;56.61
33286;BME280;19656;50.096;20.014;2022-10-16T19:03:33;99796.61;;;18.53;56.33
33286;BME280;19656;50.096;20.014;2022-10-16T19:08:37;99804.05;;;18.42;56.41
33286;BME280;19656;50.096;20.014;2022-10-16T19:13:42;99814.02;;;18.27;56.27
33286;BME280;19656;50.096;20.014;2022-10-16T19:18:49;99822.41;;;18.10;56.37
33286;BME280;19656;50.096;20.014;2022-10-16T19:23:54;99831.36;;;17.97;56.71
33286;BME280;19656;50.096;20.014;2022-10-16T19:29:00;99836.23;;;17.86;56.87
33286;BME280;19656;50.096;20.014;2022-10-16T19:34:04;99847.38;;;17.72;56.92
33286;BME280;19656;50.096;20.014;2022-10-16T19:39:24;99849.70;;;17.61;57.17
33286;BME280;19656;50.096;20.014;2022-10-16T19:44:36;99846.52;;;17.64;57.42
33286;BME280;19656;50.096;20.014;2022-10-16T19:49:39;99846.23;;;17.63;57.43
33286;BME280;19656;50.096;20.014;2022-10-16T19:54:42;99848.10;;;17.58;57.59
33286;BME280;19656;50.096;20.014;2022-10-16T19:59:45;99854.00;;;17.53;57.95
33286;BME280;19656;50.096;20.014;2022-10-16T20:04:48;99855.08;;;17.60;58.15
33286;BME280;19656;50.096;20.014;2022-10-16T20:09:51;99856.63;;;17.59;58.02
33286;BME280;19656;50.096;20.014;2022-10-16T20:14:54;99866.62;;;17.50;57.99
33286;BME280;19656;50.096;20.014;2022-10-16T20:19:57;99867.20;;;17.36;57.86
33286;BME280;19656;50.096;20.014;2022-10-16T20:25:02;99872.12;;;17.35;58.55
33286;BME280;19656;50.096;20.014;2022-10-16T20:30:17;99881.95;;;17.40;58.58
33286;BME280;19656;50.096;20.014;2022-10-16T20:35:20;99889.68;;;17.28;58.34
33286;BME280;19656;50.096;20.014;2022-10-16T20:40:25;99900.83;;;17.14;58.44
33286;BME280;19656;50.096;20.014;2022-10-16T20:45:29;99904.52;;;16.98;58.55
33286;BME280;19656;50.096;20.014;2022-10-16T20:50:32;99906.07;;;16.82;58.85
33286;BME280;19656;50.096;20.014;2022-10-16T20:55:36;99912.05;;;16.76;59.27
33286;BME280;19656;50.096;20.014;2022-10-16T21:00:39;99913.55;;;16.95;59.94
33286;BME280;19656;50.096;20.014;2022-10-16T21:05:42;99919.77;;;17.05;59.60
33286;BME280;19656;50.096;20.014;2022-10-16T21:10:45;99922.08;;;16.98;59.48
33286;BME280;19656;50.096;20.014;2022-10-16T21:15:48;99928.47;;;16.84;59.19
33286;BME280;19656;50.096;20.014;2022-10-16T21:20:51;99921.89;;;16.68;59.17
33286;BME280;19656;50.096;20.014;2022-10-16T21:25:54;99931.87;;;16.60;59.46
33286;BME280;19656;50.096;20.014;2022-10-16T21:30:57;99940.46;;;16.49;59.51
33286;BME280;19656;50.096;20.014;2022-10-16T21:36:00;99942.13;;;16.36;59.61
33286;BME280;19656;50.096;20.014;2022-10-16T21:41:14;99947.70;;;16.23;59.48
33286;BME280;19656;50.096;20.014;2022-10-16T21:46:19;99946.84;;;16.10;59.74
33286;BME280;19656;50.096;20.014;2022-10-16T21:51:32;99953.34;;;15.99;59.91
33286;BME280;19656;50.096;20.014;2022-10-16T21:56:35;99964.19;;;15.93;59.98
33286;BME280;19656;50.096;20.014;2022-10-16T22:01:38;99975.57;;;15.89;60.30
33286;BME280;19656;50.096;20.014;2022-10-16T22:06:42;99978.44;;;15.86;60.58
33286;BME280;19656;50.096;20.014;2022-10-16T22:11:45;99978.73;;;15.82;60.42
33286;BME280;19656;50.096;20.014;2022-10-16T22:16:49;99980.67;;;15.74;60.51
33286;BME280;19656;50.096;20.014;2022-10-16T22:21:53;99987.48;;;15.66;60.71
33286;BME280;19656;50.096;20.014;2022-10-16T22:26:59;99991.19;;;15.58;60.86
33286;BME280;19656;50.096;20.014;2022-10-16T22:32:01;99995.63;;;15.48;60.77
33286;BME280;19656;50.096;20.014;2022-10-16T22:37:04;99997.21;;;15.41;60.92
33286;BME280;19656;50.096;20.014;2022-10-16T22:42:07;99998.73;;;15.34;61.10
33286;BME280;19656;50.096;20.014;2022-10-16T22:47:10;100000.73;;;15.33;61.31
33286;BME280;19656;50.096;20.014;2022-10-16T22:52:13;100002.17;;;15.36;61.37
33286;BME280;19656;50.096;20.014;2022-10-16T22:57:16;100005.77;;;15.36;61.45
33286;BME280;19656;50.096;20.014;2022-10-16T23:02:20;100004.86;;;15.36;61.60
33286;BME280;19656;50.096;20.014;2022-10-16T23:07:22;100002.66;;;15.31;61.69
33286;BME280;19656;50.096;20.014;2022-10-16T23:12:28;99999.90;;;15.30;61.88
33286;BME280;19656;50.096;20.014;2022-10-16T23:17:32;100000.27;;;15.27;62.02
33286;BME280;19656;50.096;20.014;2022-10-16T23:22:35;100004.54;;;15.25;62.11
33286;BME280;19656;50.096;20.014;2022-10-16T23:27:38;100005.81;;;15.22;62.16
33286;BME280;19656;50.096;20.014;2022-10-16T23:32:40;100014.25;;;15.21;62.09
33286;BME280;19656;50.096;20.014;2022-10-16T23:37:43;100016.71;;;15.22;62.07
33286;BME280;19656;50.096;20.014;2022-10-16T23:42:47;100019.40;;;15.19;62.00
33286;BME280;19656;50.096;20.014;2022-10-16T23:47:52;100022.55;;;15.11;61.80
33286;BME280;19656;50.096;20.014;2022-10-16T23:52:55;100028.61;;;15.01;61.89
33286;BME280;19656;50.096;20.014;2022-10-16T23:57:58;100032.67;;;14.90;61.83
